Airfield :
LOGIN :

Register | Disclaimer

   EN    FR    IT 

 










Legend :    VFR   Marginal VFR   IFR   Intensive IFR   Very Intensive IFR
Visi :
Ceiling :
>= 8 km
>= 3000ft
5 to 8 km
1000 to 3000 ft
1500m to 5 km
500 to 1000 ft
800 to 1500m
200 to 500 ft
< 800m
< 200 ft
Symbols :   Thunderstorms  Fog  Heavy snow  Heavy precipitations  Wind > 20 kt
SIGMETs :     Misc.  Thunderstorms  Icing  Turbulence  Mountain Waves  Volcanic Ashes







- Airport Elevation : 66 ft
- IATA code : AOK


LGKP - Karpathos

CURRENT METAR :
  • 181120Z 21011G29KT 130V280 8000 RA SCT014 BKN030 13/11 Q1012

EXPIRED METARs :
  • 181050Z 20007KT 9999 -RA SCT014 BKN030 15/13 Q1012
  • 181020Z 15008KT 9999 FEW014 BKN030 15/13 Q1012 RERA
  • 180950Z 13006KT 9999 -RA FEW014 BKN030 14/13 Q1013
  • 180920Z 06006KT 360V090 9999 -RA FEW015 BKN030 14/12 Q1013
  • 180850Z 26009KT 5000 -RA SCT015 BKN030 14/12 Q1014

TAF TAF LGKP
Valid from the 18 at 12:00 until the 18 at 21:00 UTC


181100Z 1812/1821 26018KT 9999 FEW012 BKN025
TEMPO 1812/1821 6000 RA
PROB40
TEMPO 1812/1821 4000 TSRA FEW010 FEW018CB OVC020
No reported NOTAMs for that airfield.
1 SIGMET reported for the Athinai FIR (LGGG) :
 
Embedded thunderstorms
LGGG SIGMET 5 VALID 181050/181450 LGAT
LGGG ATHINAI FIR/UIR EMBD TS OBS S OF N3830 AND E OF E02100 MNLY MAR-COT MOV E NC=



MET'MAP, your aeronautical weather chart ! - Copyright ORBIFLY December 2007 - Disclaimer

ORBIFLY MET'MAP TEAM :

Programming & Development : Alexandra Zaïnal
Concept & Development : Baudouin d'Aumeries
Co-Development & Prog : Marc-Olivier Méhu
Technical & hardware support : Manuel Goepfert

Contact : metmap@orbifly.com




SOURCES & CREDITS :

   NOAA